Time;durP1;ratioP1;P1;durP2;ratioP2;P2;SDS_P1;SDS_P2;PMS_P1;PMS_P2;Temp;Humidity;BMP_temperature;BMP_pressure;BME280_temperature;BME280_humidity;BME280_pressure;Samples;Min_cycle;Max_cycle;Signal;HPM_P1;HPM_P2
2023/07/03 00:00:56;;;;;;;7.28;4.18;;;16.80;99.90;;;;;;4968730;28;20046;-80
2023/07/03 00:03:22;;;;;;;5.63;3.30;;;16.80;99.90;;;;;;4974608;28;20022;-85
2023/07/03 00:05:48;;;;;;;11.25;3.92;;;16.60;99.90;;;;;;4987215;28;20034;-83
2023/07/03 00:08:15;;;;;;;14.48;5.50;;;16.60;99.90;;;;;;4978020;28;20041;-84
2023/07/03 00:10:41;;;;;;;13.50;4.75;;;16.60;99.90;;;;;;4988449;28;20077;-84
2023/07/03 00:13:08;;;;;;;6.50;3.50;;;16.60;99.90;;;;;;4970641;28;20404;-83
2023/07/03 00:15:33;;;;;;;11.50;3.50;;;16.50;99.90;;;;;;4968445;28;20050;-82
2023/07/03 00:17:59;;;;;;;11.18;4.07;;;16.50;99.90;;;;;;4969117;28;20062;-83
2023/07/03 00:20:27;;;;;;;9.43;3.70;;;16.50;99.90;;;;;;4969011;28;20061;-84
2023/07/03 00:22:56;;;;;;;9.88;3.42;;;16.50;99.90;;;;;;4969280;28;20018;-81
2023/07/03 00:25:22;;;;;;;5.90;2.78;;;16.40;99.90;;;;;;4970200;28;20062;-84
2023/07/03 00:27:48;;;;;;;9.35;4.18;;;16.40;99.90;;;;;;4969834;28;20038;-81
2023/07/03 00:30:15;;;;;;;8.60;3.75;;;16.30;99.90;;;;;;4970790;28;20400;-83
2023/07/03 00:32:40;;;;;;;7.65;3.90;;;16.40;99.90;;;;;;4969820;28;20027;-83
2023/07/03 00:35:06;;;;;;;9.55;4.53;;;16.40;99.90;;;;;;4969299;28;20046;-82
2023/07/03 00:37:32;;;;;;;8.15;3.55;;;16.30;99.90;;;;;;4969698;28;20030;-82
2023/07/03 00:39:58;;;;;;;7.15;4.13;;;16.30;99.90;;;;;;4970286;28;20023;-83
2023/07/03 00:42:25;;;;;;;5.93;3.40;;;16.30;99.90;;;;;;4970005;28;20023;-84
2023/07/03 00:44:51;;;;;;;7.60;3.53;;;16.40;99.90;;;;;;4969487;28;20042;-87
2023/07/03 00:47:17;;;;;;;8.18;3.00;;;16.30;99.90;;;;;;4965971;28;20027;-85
2023/07/03 00:49:42;;;;;;;9.65;4.10;;;16.30;99.90;;;;;;4968349;28;20027;-79
2023/07/03 00:52:10;;;;;;;7.03;3.67;;;16.30;99.90;;;;;;4973666;28;20018;-79
2023/07/03 00:54:37;;;;;;;8.73;4.00;;;16.30;99.90;;;;;;4978850;28;20528;-83
2023/07/03 00:57:03;;;;;;;10.65;4.75;;;16.30;99.90;;;;;;4973416;28;20035;-84
2023/07/03 00:59:29;;;;;;;9.82;3.90;;;16.30;99.90;;;;;;4967606;28;20027;-81
2023/07/03 01:02:16;;;;;;;6.78;4.07;;;16.20;99.90;;;;;;4967879;28;20034;-84
2023/07/03 01:04:59;;;;;;;7.70;3.95;;;16.20;99.90;;;;;;4975316;28;20042;-84
2023/07/03 01:07:28;;;;;;;6.68;3.60;;;16.10;99.90;;;;;;4975796;28;20436;-81
2023/07/03 01:09:59;;;;;;;8.55;3.75;;;16.10;99.90;;;;;;4983637;28;20057;-84
2023/07/03 01:12:27;;;;;;;7.25;4.85;;;16.00;99.90;;;;;;4976358;28;20082;-83
2023/07/03 01:14:57;;;;;;;7.78;3.78;;;16.00;99.90;;;;;;4969069;28;20039;-83
2023/07/03 01:17:26;;;;;;;8.48;4.18;;;16.00;99.90;;;;;;4968726;28;20026;-84
2023/07/03 01:19:53;;;;;;;11.63;4.18;;;16.10;99.90;;;;;;4970452;28;20109;-85
2023/07/03 01:22:30;;;;;;;10.02;4.80;;;16.10;99.90;;;;;;4968579;28;20105;-82
2023/07/03 01:24:59;;;;;;;9.25;4.45;;;16.00;99.90;;;;;;4968539;28;20126;-83
2023/07/03 01:27:30;;;;;;;12.55;4.03;;;15.90;99.90;;;;;;4971629;28;20023;-83
2023/07/03 01:29:57;;;;;;;11.18;4.38;;;15.90;99.90;;;;;;4971886;28;20050;-84
2023/07/03 01:32:25;;;;;;;6.47;3.28;;;15.70;99.90;;;;;;4973115;28;20045;-83
2023/07/03 01:34:53;;;;;;;8.93;4.05;;;15.70;99.90;;;;;;4971824;28;20150;-84
2023/07/03 01:37:23;;;;;;;13.67;4.77;;;15.60;99.90;;;;;;4973529;28;20031;-84
2023/07/03 01:39:51;;;;;;;6.93;3.45;;;15.60;99.90;;;;;;4972092;28;20030;-83
2023/07/03 01:42:17;;;;;;;8.20;3.80;;;15.40;99.90;;;;;;4972051;28;20041;-83
2023/07/03 01:44:43;;;;;;;8.52;4.13;;;15.40;99.90;;;;;;4972538;28;20053;-83
2023/07/03 01:47:12;;;;;;;6.43;4.18;;;15.40;99.90;;;;;;4971880;28;20499;-83
2023/07/03 01:49:38;;;;;;;8.18;3.92;;;15.30;99.90;;;;;;4971224;28;20038;-82
2023/07/03 01:52:31;;;;;;;10.40;5.20;;;15.20;99.90;;;;;;4971562;28;20054;-83
2023/07/03 01:55:05;;;;;;;10.00;4.68;;;15.30;99.90;;;;;;4972632;28;20145;-83
2023/07/03 01:57:46;;;;;;;7.50;4.28;;;15.30;99.90;;;;;;4972072;28;20544;-83
2023/07/03 02:00:16;;;;;;;9.23;3.72;;;15.30;99.90;;;;;;4971725;28;20042;-84
2023/07/03 02:02:46;;;;;;;7.88;3.80;;;15.30;99.90;;;;;;4980640;28;20030;-83
2023/07/03 02:05:21;;;;;;;7.75;3.88;;;15.30;99.90;;;;;;4973257;28;20018;-84
2023/07/03 02:07:52;;;;;;;8.93;4.47;;;15.30;99.90;;;;;;4970506;28;20042;-82
2023/07/03 02:10:18;;;;;;;10.18;5.68;;;15.30;99.90;;;;;;4971907;28;20038;-83
2023/07/03 02:12:45;;;;;;;18.88;4.75;;;15.30;99.90;;;;;;4973291;28;20033;-85
2023/07/03 02:15:11;;;;;;;7.45;4.45;;;15.30;99.90;;;;;;4971623;28;20161;-84
2023/07/03 02:17:37;;;;;;;10.13;4.72;;;15.30;99.90;;;;;;4971976;28;20205;-84
2023/07/03 02:20:04;;;;;;;12.85;4.00;;;15.30;99.90;;;;;;4972072;28;20027;-84
2023/07/03 02:22:30;;;;;;;9.48;3.65;;;15.40;99.90;;;;;;4972084;28;20038;-84
2023/07/03 02:24:55;;;;;;;5.68;3.92;;;15.30;99.90;;;;;;4973078;28;20031;-85
2023/07/03 02:27:21;;;;;;;7.03;3.03;;;15.30;99.90;;;;;;4968338;28;20121;-84
2023/07/03 02:29:49;;;;;;;9.60;3.28;;;15.40;99.90;;;;;;4959374;28;20547;-85
2023/07/03 02:32:15;;;;;;;7.57;3.90;;;15.40;99.90;;;;;;4959615;28;20082;-83
2023/07/03 02:34:40;;;;;;;7.78;3.92;;;15.50;99.90;;;;;;4971852;28;20039;-84
2023/07/03 02:37:09;;;;;;;9.40;4.60;;;15.50;99.90;;;;;;4969603;28;20034;-83
2023/07/03 02:39:40;;;;;;;11.95;3.92;;;15.50;99.90;;;;;;4973890;28;20106;-82
2023/07/03 02:42:06;;;;;;;6.60;3.75;;;15.60;99.90;;;;;;4986594;28;20031;-83
2023/07/03 02:44:33;;;;;;;11.75;4.85;;;15.60;99.90;;;;;;4972101;28;20548;-81
2023/07/03 02:46:58;;;;;;;10.55;4.18;;;15.60;99.90;;;;;;4975148;28;20751;-82
2023/07/03 02:49:28;;;;;;;9.73;3.92;;;15.60;99.90;;;;;;4970599;28;20019;-83
2023/07/03 02:51:53;;;;;;;;;;;15.70;99.90;;;;;;4974840;28;20130;-84
2023/07/03 02:54:19;;;;;;;9.73;4.05;;;15.70;99.90;;;;;;4971818;28;20028;-83
2023/07/03 02:56:44;;;;;;;11.30;4.40;;;15.70;99.90;;;;;;4951679;28;20137;-84
2023/07/03 02:59:11;;;;;;;9.95;5.20;;;15.70;99.90;;;;;;4970640;28;20027;-83
2023/07/03 03:01:37;;;;;;;6.95;3.55;;;15.70;99.90;;;;;;4970657;28;20034;-83
2023/07/03 03:04:03;;;;;;;9.07;5.40;;;15.70;99.90;;;;;;4970986;28;20074;-84
2023/07/03 03:06:31;;;;;;;8.20;3.78;;;15.70;99.90;;;;;;4982132;28;20027;-82
2023/07/03 03:08:56;;;;;;;7.63;4.32;;;15.80;99.90;;;;;;4990335;28;20086;-82
2023/07/03 03:11:28;;;;;;;10.00;4.28;;;15.80;99.90;;;;;;4973211;28;20027;-82
2023/07/03 03:13:53;;;;;;;5.80;3.30;;;15.80;99.90;;;;;;4972617;28;20134;-85
2023/07/03 03:16:19;;;;;;;9.10;4.05;;;16.00;99.90;;;;;;4970433;28;20118;-83
2023/07/03 03:18:47;;;;;;;9.43;5.05;;;15.80;99.90;;;;;;4970561;28;20507;-83
2023/07/03 03:21:15;;;;;;;6.28;3.88;;;15.90;99.90;;;;;;4970752;28;20483;-84
2023/07/03 03:23:40;;;;;;;11.00;3.88;;;15.80;99.90;;;;;;4970518;28;20077;-83
2023/07/03 03:26:06;;;;;;;7.43;3.72;;;15.80;99.90;;;;;;4971855;28;20500;-84
2023/07/03 03:28:33;;;;;;;7.43;4.22;;;15.80;99.90;;;;;;4971495;28;20376;-84
2023/07/03 03:30:59;;;;;;;9.43;4.50;;;15.80;99.90;;;;;;4970329;28;20271;-83
2023/07/03 03:33:24;;;;;;;5.72;3.38;;;15.80;99.90;;;;;;4971491;28;20262;-84
2023/07/03 03:35:50;;;;;;;8.43;3.70;;;15.90;99.90;;;;;;4971059;28;20058;-83
2023/07/03 03:38:16;;;;;;;7.05;4.07;;;15.90;99.90;;;;;;4970105;28;20023;-84
2023/07/03 03:40:52;;;;;;;10.75;5.28;;;15.90;99.90;;;;;;4973176;28;20030;-83
2023/07/03 03:43:18;;;;;;;10.82;4.65;;;16.00;99.90;;;;;;4980668;28;20439;-84
2023/07/03 03:45:59;;;;;;;8.02;4.90;;;16.00;99.90;;;;;;4971628;28;20102;-84
2023/07/03 03:48:26;;;;;;;9.65;3.47;;;16.00;99.90;;;;;;4971052;28;20122;-83
2023/07/03 03:50:52;;;;;;;10.32;3.38;;;16.00;99.90;;;;;;4969771;28;20027;-82
2023/07/03 03:53:17;;;;;;;7.65;4.25;;;15.90;99.90;;;;;;4969600;28;20138;-84
2023/07/03 03:55:43;;;;;;;9.45;4.38;;;16.00;99.90;;;;;;4969872;28;20407;-82
2023/07/03 03:58:12;;;;;;;10.20;4.07;;;16.60;99.90;;;;;;4968955;28;20031;-83
2023/07/03 04:00:37;;;;;;;9.52;3.63;;;16.10;99.90;;;;;;4970891;28;20023;-84
2023/07/03 04:03:03;;;;;;;7.15;3.83;;;16.10;99.90;;;;;;4969604;28;20485;-83
2023/07/03 04:05:29;;;;;;;10.40;5.10;;;16.20;99.90;;;;;;4970086;28;20054;-83
2023/07/03 04:07:54;;;;;;;12.95;4.13;;;16.30;99.90;;;;;;4970861;28;20081;-84
2023/07/03 04:10:20;;;;;;;10.88;4.78;;;16.40;99.90;;;;;;4969648;28;20046;-84
2023/07/03 04:12:46;;;;;;;11.30;3.60;;;16.50;99.90;;;;;;4971076;28;20023;-86
2023/07/03 04:15:11;;;;;;;9.75;4.43;;;16.50;99.90;;;;;;4970964;28;20388;-85
2023/07/03 04:17:37;;;;;;;8.95;4.75;;;16.60;99.90;;;;;;4969427;28;20030;-84
2023/07/03 04:20:07;;;;;;;10.85;5.22;;;16.60;99.90;;;;;;4969399;28;20201;-85
2023/07/03 04:22:33;;;;;;;10.30;4.55;;;16.60;99.90;;;;;;4969658;28;20104;-85
2023/07/03 04:24:59;;;;;;;11.48;4.80;;;16.70;99.90;;;;;;4971137;28;20476;-84
2023/07/03 04:27:24;;;;;;;7.60;4.00;;;16.80;99.90;;;;;;4970521;28;20023;-84
2023/07/03 04:29:50;;;;;;;14.10;4.57;;;16.90;99.90;;;;;;4968741;28;20484;-84
2023/07/03 04:32:16;;;;;;;6.93;3.85;;;16.90;99.90;;;;;;4969355;28;20076;-83
2023/07/03 04:34:41;;;;;;;15.13;4.90;;;17.10;99.90;;;;;;4969519;28;20043;-83
2023/07/03 04:37:08;;;;;;;9.18;4.47;;;17.10;99.90;;;;;;4971765;28;20124;-85
2023/07/03 04:39:34;;;;;;;6.70;3.83;;;17.20;99.90;;;;;;4969989;28;20027;-85
2023/07/03 04:42:00;;;;;;;11.02;4.72;;;17.20;99.90;;;;;;4983100;28;20030;-84
2023/07/03 04:44:29;;;;;;;6.97;3.50;;;17.40;99.90;;;;;;4973112;28;20519;-83
2023/07/03 04:46:58;;;;;;;19.40;4.90;;;17.40;99.90;;;;;;4970357;28;20047;-82
2023/07/03 04:49:29;;;;;;;9.40;4.07;;;17.40;99.90;;;;;;4968974;28;20031;-83
2023/07/03 04:51:55;;;;;;;8.18;4.15;;;17.50;99.90;;;;;;4969340;28;20395;-83
2023/07/03 04:54:21;;;;;;;7.05;3.92;;;17.60;99.90;;;;;;4970327;28;20027;-83
2023/07/03 04:56:48;;;;;;;12.82;5.43;;;17.60;99.90;;;;;;4968897;28;20038;-83
2023/07/03 04:59:14;;;;;;;10.85;4.28;;;17.70;99.90;;;;;;4968523;28;20023;-84
2023/07/03 05:01:42;;;;;;;10.65;4.68;;;17.70;99.90;;;;;;4972227;28;20511;-84
2023/07/03 05:04:09;;;;;;;10.82;5.13;;;17.80;99.90;;;;;;4973973;28;20093;-84
2023/07/03 05:06:35;;;;;;;13.18;4.63;;;17.90;99.90;;;;;;4973223;28;20027;-85
2023/07/03 05:09:01;;;;;;;13.32;5.85;;;18.00;99.90;;;;;;4972910;28;20123;-84
2023/07/03 05:11:26;;;;;;;9.30;5.00;;;18.10;99.90;;;;;;4974257;28;20133;-81
2023/07/03 05:13:52;;;;;;;7.20;3.90;;;18.10;99.90;;;;;;4972455;28;20026;-82
2023/07/03 05:16:18;;;;;;;8.07;3.85;;;18.20;99.90;;;;;;4972670;28;20579;-81
2023/07/03 05:18:43;;;;;;;10.73;5.32;;;18.40;99.90;;;;;;4972204;28;20106;-82
2023/07/03 05:21:10;;;;;;;7.15;4.13;;;18.50;99.90;;;;;;4972440;28;20034;-82
2023/07/03 05:23:36;;;;;;;9.63;4.72;;;18.50;99.90;;;;;;4972191;28;20033;-81
2023/07/03 05:26:02;;;;;;;10.07;4.13;;;18.50;99.90;;;;;;4973789;28;20038;-81
2023/07/03 05:28:29;;;;;;;11.25;5.63;;;18.50;99.90;;;;;;4972204;28;20019;-85
2023/07/03 05:30:56;;;;;;;12.07;4.50;;;18.60;99.90;;;;;;4974018;28;20042;-86
2023/07/03 05:33:21;;;;;;;10.05;4.25;;;18.70;99.90;;;;;;4973974;28;20019;-85
2023/07/03 05:35:47;;;;;;;8.20;3.88;;;18.80;99.90;;;;;;4972440;28;20051;-86
2023/07/03 05:38:13;;;;;;;7.70;4.40;;;18.80;99.90;;;;;;4973970;28;20027;-84
2023/07/03 05:40:38;;;;;;;11.10;4.70;;;18.80;99.90;;;;;;4975568;28;20030;-85
2023/07/03 05:43:04;;;;;;;7.07;4.47;;;18.80;99.90;;;;;;4990622;28;20038;-86
2023/07/03 05:45:30;;;;;;;16.10;5.43;;;18.90;99.90;;;;;;4972741;28;20047;-85
2023/07/03 05:47:55;;;;;;;8.05;4.20;;;18.90;99.90;;;;;;4973713;28;20030;-86
2023/07/03 05:50:21;;;;;;;11.90;4.47;;;19.00;99.90;;;;;;4973708;28;20480;-85
2023/07/03 05:52:46;;;;;;;11.95;5.00;;;19.00;99.90;;;;;;4972491;28;20080;-83
2023/07/03 05:55:12;;;;;;;12.20;4.53;;;19.00;99.90;;;;;;4972291;28;20034;-86
2023/07/03 05:57:38;;;;;;;7.38;4.35;;;19.00;99.90;;;;;;4972400;28;20519;-83
2023/07/03 06:00:13;;;;;;;5.88;3.80;;;19.10;99.90;;;;;;4972675;28;20031;-84
2023/07/03 06:02:42;;;;;;;7.53;3.85;;;19.30;99.90;;;;;;4985144;28;20037;-87
2023/07/03 06:05:08;;;;;;;7.65;3.63;;;19.40;99.90;;;;;;4973845;28;20026;-84
2023/07/03 06:07:34;;;;;;;10.63;4.55;;;19.50;99.90;;;;;;4972084;28;20026;-87
2023/07/03 06:10:00;;;;;;;8.45;4.60;;;19.60;99.90;;;;;;4972085;28;20531;-83
2023/07/03 06:12:29;;;;;;;13.60;5.03;;;19.70;99.90;;;;;;4971909;28;20579;-82
2023/07/03 06:14:59;;;;;;;13.20;4.30;;;19.60;99.90;;;;;;4972412;28;20031;-87
2023/07/03 06:17:26;;;;;;;11.38;4.18;;;19.60;99.90;;;;;;4970081;28;20369;-84
2023/07/03 06:19:52;;;;;;;11.45;4.35;;;19.80;99.90;;;;;;4972000;28;20058;-83
2023/07/03 06:22:18;;;;;;;16.50;5.38;;;20.00;99.60;;;;;;4972277;28;20034;-83
2023/07/03 06:24:44;;;;;;;14.57;4.20;;;20.20;99.40;;;;;;4971343;28;20026;-84
2023/07/03 06:27:10;;;;;;;12.10;4.95;;;20.30;99.50;;;;;;4971743;28;20050;-84
2023/07/03 06:29:36;;;;;;;13.40;4.35;;;20.60;99.90;;;;;;4970920;28;20144;-83
2023/07/03 06:32:02;;;;;;;11.75;4.65;;;20.80;99.20;;;;;;4970459;28;20500;-83
2023/07/03 06:34:27;;;;;;;14.85;5.50;;;21.00;98.70;;;;;;4970631;28;20039;-82
2023/07/03 06:36:53;;;;;;;8.95;4.25;;;21.30;97.70;;;;;;4971168;28;20043;-84
2023/07/03 06:39:22;;;;;;;10.32;4.13;;;21.30;97.00;;;;;;4973715;28;20035;-85
2023/07/03 06:41:48;;;;;;;11.60;5.45;;;21.20;96.70;;;;;;4971965;28;20227;-86
2023/07/03 06:44:16;;;;;;;13.02;4.07;;;21.20;97.30;;;;;;4969525;28;20392;-85
2023/07/03 06:46:43;;;;;;;12.05;5.28;;;21.10;95.30;;;;;;4971283;28;20468;-86
2023/07/03 06:49:09;;;;;;;11.07;5.38;;;20.80;96.90;;;;;;4969449;28;20247;-85
2023/07/03 06:51:36;;;;;;;9.38;4.75;;;20.50;97.10;;;;;;4972012;28;20098;-86
2023/07/03 06:54:02;;;;;;;13.57;5.22;;;20.20;97.20;;;;;;4970144;28;20057;-85
2023/07/03 06:56:28;;;;;;;15.65;6.40;;;20.30;96.90;;;;;;4990828;28;20035;-85
2023/07/03 06:58:54;;;;;;;11.80;5.55;;;20.20;96.90;;;;;;4994984;28;20030;-85
2023/07/03 07:01:23;;;;;;;13.23;4.63;;;20.70;96.50;;;;;;4973987;28;20098;-86
2023/07/03 07:03:48;;;;;;;10.57;5.65;;;21.30;95.40;;;;;;4971359;28;20089;-85
2023/07/03 07:06:21;;;;;;;11.15;4.43;;;21.70;94.30;;;;;;4972750;28;20030;-85
2023/07/03 07:08:47;;;;;;;10.82;4.72;;;22.30;92.60;;;;;;4970610;28;20482;-86
2023/07/03 07:11:15;;;;;;;13.77;4.97;;;22.40;92.50;;;;;;4972381;28;20082;-87
2023/07/03 07:13:43;;;;;;;14.65;5.90;;;22.20;90.60;;;;;;4990845;28;20027;-85
2023/07/03 07:16:36;;;;;;;9.23;3.47;;;21.60;90.40;;;;;;4972147;28;20066;-85
2023/07/03 07:19:07;;;;;;;9.30;4.15;;;21.50;91.00;;;;;;5000545;28;20062;-82
2023/07/03 07:21:35;;;;;;;11.38;4.55;;;20.80;90.60;;;;;;5005652;28;20026;-87
2023/07/03 07:24:10;;;;;;;10.90;3.92;;;20.90;92.00;;;;;;4993072;28;20093;-87
2023/07/03 07:26:36;;;;;;;6.28;3.72;;;21.10;90.40;;;;;;4973159;28;20042;-84
2023/07/03 07:29:03;;;;;;;11.50;4.47;;;21.00;91.60;;;;;;4977515;28;20428;-84
2023/07/03 07:31:29;;;;;;;8.07;3.60;;;21.20;91.20;;;;;;4984531;28;20023;-85
2023/07/03 07:33:55;;;;;;;11.75;4.32;;;21.70;89.90;;;;;;4977678;28;20035;-87
2023/07/03 07:36:22;;;;;;;11.68;4.53;;;22.30;88.80;;;;;;4973713;28;20047;-84
2023/07/03 07:38:49;;;;;;;10.00;4.22;;;23.60;85.90;;;;;;4972433;28;20526;-87
2023/07/03 07:41:15;;;;;;;8.88;4.20;;;23.80;80.10;;;;;;4983021;28;20072;-87
2023/07/03 07:43:40;;;;;;;9.93;4.28;;;23.50;80.60;;;;;;4994371;28;20477;-86
2023/07/03 07:46:06;;;;;;;7.63;3.75;;;23.90;82.80;;;;;;4977620;28;20030;-87
2023/07/03 07:48:32;;;;;;;10.77;4.10;;;24.10;79.10;;;;;;4972746;28;20034;-87
2023/07/03 07:50:58;;;;;;;10.30;3.40;;;23.60;78.10;;;;;;4969992;28;20526;-87
2023/07/03 07:53:23;;;;;;;10.05;3.97;;;23.50;78.20;;;;;;4971578;28;20034;-87
2023/07/03 07:55:49;;;;;;;12.32;4.35;;;23.20;79.10;;;;;;4973239;28;20043;-87
2023/07/03 07:58:15;;;;;;;11.27;3.67;;;23.70;79.40;;;;;;4973805;28;20121;-86
2023/07/03 08:00:43;;;;;;;10.00;3.53;;;23.80;77.40;;;;;;4974155;28;20030;-84
2023/07/03 08:03:08;;;;;;;10.23;3.17;;;23.80;76.90;;;;;;4959851;28;20031;-84
2023/07/03 08:05:36;;;;;;;12.00;5.13;;;23.40;79.50;;;;;;4972045;28;20030;-86
2023/07/03 08:08:02;;;;;;;7.47;3.92;;;22.90;80.10;;;;;;4975858;28;20019;-87
2023/07/03 08:10:27;;;;;;;11.10;4.05;;;22.60;79.80;;;;;;4981649;28;20026;-85
2023/07/03 08:12:53;;;;;;;12.40;3.45;;;22.20;79.70;;;;;;4967027;28;20039;-88
2023/07/03 08:15:27;;;;;;;15.30;3.45;;;22.70;80.40;;;;;;4958763;28;20060;-82
2023/07/03 08:17:53;;;;;;;10.73;3.80;;;22.20;78.90;;;;;;4979284;28;20078;-84
2023/07/03 08:20:22;;;;;;;7.88;3.38;;;20.70;83.80;;;;;;4978393;28;20050;-83
2023/07/03 08:22:47;;;;;;;8.63;4.35;;;20.10;82.70;;;;;;4979103;28;20015;-83
2023/07/03 08:25:26;;;;;;;8.90;2.95;;;20.60;83.50;;;;;;4978920;28;20031;-82
2023/07/03 08:27:52;;;;;;;12.65;3.90;;;21.60;79.50;;;;;;4979288;28;20023;-82
2023/07/03 08:30:17;;;;;;;8.15;4.00;;;21.50;82.30;;;;;;4971473;28;20027;-88
2023/07/03 08:32:43;;;;;;;8.35;3.42;;;22.40;77.30;;;;;;4963802;28;20030;-84
2023/07/03 08:35:09;;;;;;;7.95;3.30;;;23.00;75.80;;;;;;4972059;28;20346;-83
2023/07/03 08:37:34;;;;;;;8.73;4.05;;;22.80;77.40;;;;;;4989258;28;20023;-85
2023/07/03 08:40:00;;;;;;;20.50;3.90;;;23.00;77.90;;;;;;4981109;28;20061;-87
2023/07/03 08:42:38;;;;;;;8.63;3.58;;;23.30;76.40;;;;;;4999892;28;20018;-85
2023/07/03 08:45:05;;;;;;;7.03;3.72;;;23.20;75.30;;;;;;4989028;28;20031;-87
2023/07/03 08:47:32;;;;;;;10.93;3.38;;;23.70;76.90;;;;;;4982588;28;20357;-87
2023/07/03 08:50:00;;;;;;;9.93;3.35;;;24.20;74.40;;;;;;4981291;28;20061;-88
2023/07/03 08:52:35;;;;;;;8.10;3.60;;;24.70;74.60;;;;;;4983150;28;20019;-87
2023/07/03 08:55:06;;;;;;;8.10;3.53;;;25.20;72.20;;;;;;4979454;28;20053;-88
2023/07/03 08:57:32;;;;;;;6.57;2.10;;;24.70;73.70;;;;;;4979877;28;20023;-90
2023/07/03 08:59:58;;;;;;;10.52;3.08;;;24.30;68.60;;;;;;4976764;28;20058;-86
2023/07/03 09:03:05;;;;;;;5.25;2.42;;;23.90;70.40;;;;;;4972002;28;20050;-88
2023/07/03 09:05:42;;;;;;;5.63;3.25;;;23.60;70.50;;;;;;4971031;28;20081;-81
2023/07/03 09:08:12;;;;;;;8.02;2.38;;;23.30;70.20;;;;;;4980191;28;20061;-85
2023/07/03 09:10:50;;;;;;;6.88;2.53;;;23.30;72.80;;;;;;4971962;28;20102;-80
2023/07/03 09:13:22;;;;;;;7.10;3.03;;;23.00;72.00;;;;;;4967597;28;20487;-83
2023/07/03 09:15:48;;;;;;;6.20;2.83;;;23.30;72.40;;;;;;4968296;28;20495;-79
2023/07/03 09:18:18;;;;;;;6.00;2.83;;;23.60;72.30;;;;;;4967429;28;20123;-83
2023/07/03 09:20:45;;;;;;;8.20;2.58;;;23.80;74.00;;;;;;4968188;28;20035;-82
2023/07/03 09:23:20;;;;;;;6.10;2.53;;;23.70;70.90;;;;;;4968187;28;20026;-81
2023/07/03 09:26:00;;;;;;;9.50;3.08;;;23.40;70.70;;;;;;4969309;28;20122;-79
2023/07/03 09:28:26;;;;;;;8.35;3.38;;;22.90;72.00;;;;;;4967960;28;20066;-80
2023/07/03 09:30:55;;;;;;;4.53;2.58;;;22.40;74.60;;;;;;4967629;28;20047;-79
2023/07/03 09:33:20;;;;;;;7.80;3.20;;;22.40;73.60;;;;;;4965402;28;20086;-79
2023/07/03 09:35:47;;;;;;;13.27;3.53;;;22.90;73.50;;;;;;4965695;28;20054;-81
2023/07/03 09:38:24;;;;;;;7.47;3.42;;;23.10;73.20;;;;;;4966253;28;20035;-78
2023/07/03 09:40:53;;;;;;;8.40;3.65;;;23.00;73.40;;;;;;4970186;28;20795;-79
2023/07/03 09:43:22;;;;;;;7.15;3.15;;;23.40;71.90;;;;;;4984966;28;20092;-80
2023/07/03 09:46:01;;;;;;;5.45;2.72;;;23.80;73.40;;;;;;4975224;28;20369;-80
2023/07/03 09:48:30;;;;;;;5.37;2.97;;;23.30;76.40;;;;;;4970045;28;20053;-79
2023/07/03 09:50:55;;;;;;;;;;;23.00;72.20;;;;;;4973599;28;20058;-81
2023/07/03 09:53:24;;;;;;;4.65;2.50;;;23.10;74.00;;;;;;4971443;28;20004;-80
2023/07/03 09:55:52;;;;;;;5.85;2.80;;;23.60;71.90;;;;;;4972355;28;20076;-79
2023/07/03 09:58:18;;;;;;;6.97;3.40;;;23.30;74.00;;;;;;4975898;28;20165;-78
2023/07/03 10:00:50;;;;;;;7.82;2.83;;;23.20;74.70;;;;;;4970689;28;20543;-82
2023/07/03 10:03:28;;;;;;;6.28;2.70;;;23.90;73.50;;;;;;4971204;28;20495;-82
2023/07/03 10:05:56;;;;;;;8.77;4.20;;;24.00;68.60;;;;;;4972402;28;20511;-81
2023/07/03 10:08:26;;;;;;;7.70;2.75;;;23.90;69.50;;;;;;4971903;28;20400;-80
2023/07/03 10:10:55;;;;;;;9.65;2.65;;;24.10;71.30;;;;;;4971930;28;20027;-81
2023/07/03 10:13:37;;;;;;;6.85;3.22;;;24.50;69.90;;;;;;4970404;28;20037;-80
2023/07/03 10:16:04;;;;;;;11.60;2.88;;;24.10;68.40;;;;;;4970492;28;20133;-80
2023/07/03 10:18:37;;;;;;;9.20;4.15;;;24.30;74.30;;;;;;4972124;28;20031;-81
2023/07/03 10:21:06;;;;;;;5.03;3.10;;;24.80;70.00;;;;;;4972834;28;20027;-79
2023/07/03 10:23:36;;;;;;;7.88;3.58;;;24.60;68.20;;;;;;4971424;28;20122;-79
2023/07/03 10:26:25;;;;;;;;;;;24.30;69.40;;;;;;4970855;28;20019;-79
2023/07/03 10:29:23;;;;;;;8.98;2.85;;;23.80;70.30;;;;;;4974148;28;20000;-80
2023/07/03 10:31:59;;;;;;;10.00;4.00;;;23.70;70.00;;;;;;4984338;28;20045;-81
2023/07/03 10:34:37;;;;;;;3.92;2.58;;;23.50;71.20;;;;;;4989393;28;20106;-80
2023/07/03 10:37:05;;;;;;;8.45;3.40;;;23.20;72.10;;;;;;4985367;28;20352;-81
2023/07/03 10:39:51;;;;;;;7.53;2.78;;;23.40;70.50;;;;;;4990837;28;20470;-84
2023/07/03 10:42:34;;;;;;;8.13;2.88;;;23.40;71.00;;;;;;4997743;28;20026;-81
2023/07/03 10:45:09;;;;;;;9.60;3.00;;;22.90;71.90;;;;;;4998979;28;20098;-79
2023/07/03 10:47:48;;;;;;;5.22;3.75;;;23.70;72.30;;;;;;4961401;28;20023;-80
2023/07/03 10:50:17;;;;;;;5.85;2.00;;;24.30;70.60;;;;;;4965197;28;20546;-80
2023/07/03 10:52:56;;;;;;;7.70;2.60;;;24.50;69.40;;;;;;4979721;28;20029;-78
2023/07/03 10:55:31;;;;;;;6.38;2.50;;;24.30;71.80;;;;;;4971284;28;20035;-78
2023/07/03 10:58:14;;;;;;;7.25;2.88;;;23.40;71.10;;;;;;4967897;28;20046;-78
2023/07/03 11:00:49;;;;;;;8.00;3.55;;;23.10;70.70;;;;;;4968345;28;20030;-78
2023/07/03 11:03:40;;;;;;;4.38;1.98;;;22.50;72.60;;;;;;4970824;28;20105;-81
2023/07/03 11:06:12;;;;;;;5.82;2.65;;;22.70;72.80;;;;;;4979403;28;20086;-79
2023/07/03 11:09:00;;;;;;;11.43;3.33;;;22.30;72.50;;;;;;4971430;28;20130;-78
2023/07/03 11:11:52;;;;;;;6.82;2.38;;;22.20;72.90;;;;;;4971920;28;20140;-79
2023/07/03 11:14:39;;;;;;;4.22;2.05;;;22.50;72.70;;;;;;4980378;28;20101;-79
2023/07/03 11:17:39;;;;;;;4.07;2.47;;;22.50;73.40;;;;;;4979788;28;20371;-80
2023/07/03 11:20:28;;;;;;;5.20;2.70;;;23.70;72.40;;;;;;4967323;28;20298;-76
2023/07/03 11:23:06;;;;;;;;;;;24.30;68.20;;;;;;4962443;28;20027;-79
2023/07/03 11:25:39;;;;;;;4.47;2.97;;;24.40;68.90;;;;;;4965107;28;19965;-79
2023/07/03 11:28:13;;;;;;;5.28;3.42;;;24.60;68.70;;;;;;4979611;28;20042;-80
2023/07/03 11:30:42;;;;;;;4.28;2.60;;;24.30;69.20;;;;;;4981092;28;20146;-80
2023/07/03 11:33:08;;;;;;;8.33;3.27;;;24.60;68.30;;;;;;4982061;28;20025;-81
2023/07/03 11:35:34;;;;;;;7.10;2.78;;;24.80;67.30;;;;;;4994270;28;20469;-84
2023/07/03 11:38:06;;;;;;;8.80;2.55;;;25.40;68.80;;;;;;4981906;28;20046;-83
2023/07/03 11:40:35;;;;;;;5.00;2.90;;;25.80;67.40;;;;;;4980209;28;20043;-80
2023/07/03 11:43:33;;;;;;;5.50;2.78;;;25.30;66.90;;;;;;4978490;28;20227;-83
2023/07/03 11:45:58;;;;;;;5.93;2.47;;;26.00;65.70;;;;;;4978968;28;20027;-82
2023/07/03 11:48:39;;;;;;;9.77;3.42;;;26.00;65.70;;;;;;4977631;28;20023;-82
2023/07/03 11:51:14;;;;;;;3.67;2.10;;;25.90;69.20;;;;;;4977732;28;20131;-79
2023/07/03 11:53:50;;;;;;;5.10;2.28;;;26.20;66.50;;;;;;4981896;28;20025;-83
2023/07/03 11:56:31;;;;;;;3.88;2.30;;;25.90;66.80;;;;;;4971140;28;20121;-81
2023/07/03 11:59:24;;;;;;;3.88;2.42;;;25.70;65.40;;;;;;4980605;28;20038;-81
2023/07/03 12:02:10;;;;;;;6.05;2.90;;;25.50;66.10;;;;;;4981569;28;20085;-81
2023/07/03 12:04:42;;;;;;;5.50;2.10;;;25.60;66.80;;;;;;4979356;28;20103;-80
2023/07/03 12:07:28;;;;;;;4.00;2.38;;;26.70;64.70;;;;;;4973790;28;20088;-82
2023/07/03 12:10:17;;;;;;;3.30;2.08;;;27.00;65.40;;;;;;4965310;28;20050;-84
2023/07/03 12:12:44;;;;;;;4.78;1.90;;;26.20;65.70;;;;;;4982768;28;20069;-82
2023/07/03 12:15:13;;;;;;;3.15;2.30;;;25.70;66.30;;;;;;4981328;28;20290;-84
2023/07/03 12:17:38;;;;;;;3.47;2.13;;;26.30;64.10;;;;;;4975100;28;20077;-84
2023/07/03 12:20:18;;;;;;;4.63;1.90;;;26.50;64.90;;;;;;4976107;28;20026;-85
2023/07/03 12:22:47;;;;;;;6.93;2.50;;;26.70;65.80;;;;;;4971307;28;20094;-81
2023/07/03 12:25:23;;;;;;;5.13;2.20;;;27.30;64.30;;;;;;4973283;28;20037;-81
2023/07/03 12:27:50;;;;;;;5.18;2.28;;;26.90;65.40;;;;;;4971135;28;20062;-85
2023/07/03 12:30:24;;;;;;;5.53;2.00;;;27.10;62.90;;;;;;4969848;28;20023;-83
2023/07/03 12:32:52;;;;;;;4.35;2.05;;;25.70;63.30;;;;;;4970088;28;20286;-82
2023/07/03 12:35:27;;;;;;;3.78;2.40;;;24.70;68.00;;;;;;4973031;28;20069;-81
2023/07/03 12:37:55;;;;;;;8.70;2.47;;;24.70;67.50;;;;;;4971032;28;20042;-88
2023/07/03 12:40:22;;;;;;;5.45;2.17;;;25.70;67.00;;;;;;4973513;28;20092;-84
2023/07/03 12:42:49;;;;;;;6.80;2.75;;;26.10;67.90;;;;;;4975231;28;20058;-83
2023/07/03 12:45:23;;;;;;;6.13;2.35;;;26.10;66.30;;;;;;4975697;28;20109;-85
2023/07/03 12:48:06;;;;;;;9.05;2.97;;;26.50;65.40;;;;;;4975834;28;20066;-84
2023/07/03 12:50:34;;;;;;;7.38;2.53;;;26.20;65.40;;;;;;4979755;28;20239;-83
2023/07/03 12:53:01;;;;;;;5.90;3.15;;;24.70;65.30;;;;;;4973926;28;20042;-83
2023/07/03 12:55:31;;;;;;;5.75;2.72;;;24.60;67.20;;;;;;4980472;28;20041;-81
2023/07/03 12:57:58;;;;;;;3.55;2.80;;;24.60;67.60;;;;;;4977671;28;20115;-81